createdAt,value
2023-03-17T00:01:33.750Z,4.38
2023-03-17T00:04:36.733Z,4.49
2023-03-17T00:07:39.237Z,5.01
2023-03-17T00:10:41.770Z,5.14
2023-03-17T00:13:45.040Z,4.82
2023-03-17T00:16:50.196Z,4.53
2023-03-17T00:19:53.619Z,4.45
2023-03-17T00:22:59.624Z,4.35
2023-03-17T00:26:02.569Z,4.34
2023-03-17T00:29:06.114Z,4.22
2023-03-17T00:32:20.528Z,4.06
2023-03-17T00:35:29.389Z,3.96
2023-03-17T00:38:32.544Z,3.82
2023-03-17T00:41:35.151Z,3.81
2023-03-17T00:44:38.113Z,3.76
2023-03-17T00:47:40.769Z,3.75
2023-03-17T00:50:45.026Z,3.70
2023-03-17T00:53:48.086Z,3.67
2023-03-17T00:56:52.163Z,3.72
2023-03-17T00:59:55.009Z,3.74
2023-03-17T01:02:57.925Z,3.78
2023-03-17T01:06:04.803Z,3.74
2023-03-17T01:09:08.324Z,3.65
2023-03-17T01:12:14.202Z,3.51
2023-03-17T01:15:17.586Z,3.43
2023-03-17T01:18:22.866Z,3.45
2023-03-17T01:21:25.555Z,3.47
2023-03-17T01:24:28.628Z,3.49
2023-03-17T01:27:35.429Z,3.47
2023-03-17T01:30:39.902Z,3.45
2023-03-17T01:33:42.466Z,3.48
2023-03-17T01:36:45.279Z,3.45
2023-03-17T01:39:48.166Z,3.29
2023-03-17T01:43:00.758Z,3.28
2023-03-17T01:46:20.808Z,3.06
2023-03-17T01:49:38.888Z,2.99
2023-03-17T01:52:41.835Z,2.86
2023-03-17T01:55:48.461Z,2.96
2023-03-17T01:58:54.731Z,2.98
2023-03-17T02:02:06.681Z,2.95
2023-03-17T02:05:13.004Z,3.00
2023-03-17T02:08:16.644Z,3.07
2023-03-17T02:11:21.115Z,3.09
2023-03-17T02:14:24.471Z,3.00
2023-03-17T02:17:28.404Z,3.00
2023-03-17T02:20:31.211Z,2.98
2023-03-17T02:23:34.031Z,2.84
2023-03-17T02:26:37.756Z,2.80
2023-03-17T02:29:42.097Z,2.85
2023-03-17T02:32:44.945Z,2.86
2023-03-17T02:35:47.905Z,3.08
2023-03-17T02:38:52.862Z,3.09
2023-03-17T02:41:55.952Z,2.99
2023-03-17T02:44:58.939Z,2.89
2023-03-17T02:48:01.650Z,2.82
2023-03-17T02:51:04.617Z,2.84
2023-03-17T02:54:07.875Z,2.93
2023-03-17T02:57:11.234Z,2.91
2023-03-17T03:00:14.406Z,2.89
2023-03-17T03:03:18.010Z,2.74
2023-03-17T03:06:21.301Z,2.73
2023-03-17T03:09:24.349Z,2.70
2023-03-17T03:12:26.993Z,2.69
2023-03-17T03:15:29.559Z,2.64
2023-03-17T03:18:33.019Z,2.68
2023-03-17T03:21:36.789Z,2.62
2023-03-17T03:24:39.270Z,2.54
2023-03-17T03:27:42.251Z,2.45
2023-03-17T03:30:46.898Z,2.39
2023-03-17T03:33:51.730Z,2.34
2023-03-17T03:36:54.369Z,2.26
2023-03-17T03:39:57.080Z,2.29
2023-03-17T03:42:59.890Z,2.36
2023-03-17T03:46:05.139Z,2.33
2023-03-17T03:49:07.837Z,2.35
2023-03-17T03:52:10.613Z,2.32
2023-03-17T03:55:13.327Z,2.21
2023-03-17T03:58:15.981Z,2.33
2023-03-17T04:01:18.761Z,2.35
2023-03-17T04:04:21.847Z,2.32
2023-03-17T04:07:24.847Z,2.36
2023-03-17T04:10:27.835Z,2.32
2023-03-17T04:13:30.441Z,2.29
2023-03-17T04:16:33.230Z,2.12
2023-03-17T04:19:36.476Z,2.19
2023-03-17T04:22:39.658Z,2.14
2023-03-17T04:25:42.373Z,2.05
2023-03-17T04:28:45.207Z,2.20
2023-03-17T04:31:47.987Z,2.06
2023-03-17T04:34:50.588Z,2.08
2023-03-17T04:37:53.443Z,2.02
2023-03-17T04:40:56.207Z,2.17
2023-03-17T04:43:58.770Z,2.14
2023-03-17T04:47:01.422Z,2.12
2023-03-17T04:50:05.557Z,2.06
2023-03-17T04:53:09.257Z,2.19
2023-03-17T04:56:12.090Z,2.12
2023-03-17T04:59:16.289Z,1.95
2023-03-17T05:02:19.112Z,1.85
2023-03-17T05:05:21.748Z,2.05
2023-03-17T05:08:24.885Z,2.03
2023-03-17T05:11:28.327Z,2.09
2023-03-17T05:14:32.097Z,2.27
2023-03-17T05:17:34.754Z,2.31
2023-03-17T05:20:37.268Z,2.34
2023-03-17T05:23:40.954Z,2.40
2023-03-17T05:26:44.641Z,2.38
2023-03-17T05:29:47.662Z,2.37
2023-03-17T05:32:50.265Z,2.48
2023-03-17T05:35:53.780Z,2.65
2023-03-17T05:38:56.749Z,2.56
2023-03-17T05:41:59.450Z,2.67
2023-03-17T05:45:02.229Z,2.80
2023-03-17T05:48:06.372Z,2.86
2023-03-17T05:51:09.312Z,2.88
2023-03-17T05:54:12.257Z,2.76
2023-03-17T05:57:16.395Z,2.90
2023-03-17T06:00:21.055Z,3.05
2023-03-17T06:03:23.872Z,3.06
2023-03-17T06:06:27.081Z,3.04
2023-03-17T06:09:29.972Z,3.09
2023-03-17T06:12:32.946Z,3.17
2023-03-17T06:15:37.056Z,3.10
2023-03-17T06:18:40.082Z,3.33
2023-03-17T06:21:42.861Z,3.37
2023-03-17T06:24:46.432Z,3.51
2023-03-17T06:27:53.092Z,3.57
2023-03-17T06:30:55.659Z,3.76
2023-03-17T06:33:58.308Z,4.00
2023-03-17T06:37:00.824Z,4.03
2023-03-17T06:40:05.622Z,4.25
2023-03-17T06:43:08.159Z,4.35
2023-03-17T06:46:11.214Z,4.41
2023-03-17T06:49:14.049Z,4.31
2023-03-17T06:52:16.604Z,4.67
2023-03-17T06:55:19.498Z,4.81
2023-03-17T06:58:22.994Z,4.93
2023-03-17T07:01:28.873Z,5.02
2023-03-17T07:04:32.055Z,5.01
2023-03-17T07:07:35.670Z,4.93
2023-03-17T07:10:41.127Z,5.30
2023-03-17T07:13:43.534Z,5.47
2023-03-17T07:16:46.717Z,5.50
2023-03-17T07:19:50.168Z,5.72
2023-03-17T07:22:52.983Z,5.71
2023-03-17T07:25:57.360Z,5.86
2023-03-17T07:29:01.444Z,6.23
2023-03-17T07:32:07.148Z,6.56
2023-03-17T07:35:09.580Z,6.83
2023-03-17T07:38:12.282Z,7.04
2023-03-17T07:41:15.411Z,7.22
2023-03-17T07:44:18.893Z,7.34
2023-03-17T07:47:21.707Z,7.30
2023-03-17T07:50:24.404Z,7.11
2023-03-17T07:53:27.413Z,7.24
2023-03-17T07:56:31.227Z,7.35
2023-03-17T07:59:34.537Z,7.46
2023-03-17T08:02:37.791Z,7.70
2023-03-17T08:05:41.137Z,8.01
2023-03-17T08:08:46.190Z,8.29
2023-03-17T08:11:49.126Z,8.56
2023-03-17T08:14:53.188Z,8.79
2023-03-17T08:17:55.680Z,9.15
2023-03-17T08:20:58.768Z,9.36
2023-03-17T08:24:01.781Z,9.68
2023-03-17T08:27:04.293Z,9.96
2023-03-17T08:30:08.720Z,10.21
2023-03-17T08:33:11.543Z,10.52
2023-03-17T08:36:14.200Z,10.70
2023-03-17T08:39:17.285Z,11.10
2023-03-17T08:42:20.089Z,11.62
2023-03-17T08:45:22.998Z,11.88
2023-03-17T08:48:25.612Z,12.03
2023-03-17T08:51:31.780Z,12.96
2023-03-17T08:54:35.909Z,15.57
2023-03-17T08:57:38.766Z,21.68
2023-03-17T09:00:41.430Z,24.27
2023-03-17T09:03:45.258Z,25.58
2023-03-17T09:07:02.355Z,25.60
2023-03-17T09:10:08.068Z,27.42
2023-03-17T09:13:11.732Z,28.41
2023-03-17T09:16:16.287Z,28.09
2023-03-17T09:19:18.915Z,28.60
2023-03-17T09:22:21.807Z,29.09
2023-03-17T09:25:25.505Z,28.78
2023-03-17T09:28:29.259Z,29.72
2023-03-17T09:31:33.135Z,30.75
2023-03-17T09:34:36.175Z,30.94
2023-03-17T09:37:39.056Z,29.93
2023-03-17T09:41:04.818Z,28.94
2023-03-17T09:44:16.332Z,29.36
2023-03-17T09:47:56.081Z,30.72
2023-03-17T09:51:04.981Z,30.62
2023-03-17T09:54:15.484Z,30.39
2023-03-17T09:57:36.333Z,30.83
2023-03-17T10:00:39.543Z,31.19
2023-03-17T10:03:42.970Z,30.53
2023-03-17T10:06:47.560Z,32.02
2023-03-17T10:10:05.288Z,30.25
2023-03-17T10:13:27.385Z,30.31
2023-03-17T10:16:46.880Z,31.67
2023-03-17T10:20:00.805Z,31.59
2023-03-17T10:23:07.736Z,31.12
2023-03-17T10:26:42.650Z,29.75
2023-03-17T10:29:48.288Z,29.16
2023-03-17T10:32:53.002Z,30.78
2023-03-17T10:35:55.706Z,32.72
2023-03-17T10:38:59.034Z,33.53
2023-03-17T10:42:21.833Z,32.72
2023-03-17T10:45:38.406Z,32.52
2023-03-17T10:48:42.699Z,30.56
2023-03-17T10:51:46.755Z,31.64
2023-03-17T10:54:51.470Z,31.80
2023-03-17T10:58:02.857Z,32.45
2023-03-17T11:01:08.039Z,32.23
2023-03-17T11:04:35.665Z,33.58
2023-03-17T11:07:40.112Z,31.58
2023-03-17T11:10:43.263Z,31.26
2023-03-17T11:13:45.791Z,32.00
2023-03-17T11:17:00.285Z,32.90
2023-03-17T11:20:05.709Z,34.13
2023-03-17T11:23:40.738Z,33.61
2023-03-17T11:26:46.295Z,33.58
2023-03-17T11:30:04.204Z,33.25
2023-03-17T11:33:16.092Z,33.88
2023-03-17T11:36:27.546Z,35.01
2023-03-17T11:39:46.292Z,34.28
2023-03-17T11:43:26.436Z,32.27
2023-03-17T11:46:33.900Z,33.59
2023-03-17T11:49:38.874Z,33.67
2023-03-17T11:52:59.965Z,35.23
2023-03-17T11:56:20.789Z,34.79
2023-03-17T11:59:52.331Z,32.88
2023-03-17T12:03:06.167Z,32.58
2023-03-17T12:06:27.105Z,33.94
2023-03-17T12:09:38.570Z,35.22
2023-03-17T12:12:48.378Z,34.55
2023-03-17T12:16:03.381Z,32.31
2023-03-17T12:19:19.728Z,32.82
2023-03-17T12:22:28.535Z,33.10
2023-03-17T12:25:57.832Z,33.41
2023-03-17T12:29:09.518Z,33.49
2023-03-17T12:32:21.307Z,31.66
2023-03-17T12:35:32.010Z,31.77
2023-03-17T12:38:38.167Z,30.24
2023-03-17T12:42:19.978Z,30.01
2023-03-17T12:45:43.327Z,30.23
2023-03-17T12:49:05.606Z,31.41
2023-03-17T12:52:35.218Z,32.55
2023-03-17T12:55:38.680Z,31.32
2023-03-17T12:58:45.887Z,31.49
2023-03-17T13:02:15.432Z,31.93
2023-03-17T13:05:31.046Z,30.18
2023-03-17T13:08:44.833Z,30.21
2023-03-17T13:11:47.961Z,29.71
2023-03-17T13:14:52.093Z,28.58
2023-03-17T13:18:16.207Z,28.89
2023-03-17T13:21:20.655Z,26.67
2023-03-17T13:24:36.264Z,27.55
2023-03-17T13:27:38.906Z,28.05
2023-03-17T13:31:02.434Z,26.90
2023-03-17T13:34:16.670Z,27.94
2023-03-17T13:37:28.094Z,28.07
2023-03-17T13:40:55.421Z,26.79
2023-03-17T13:44:15.385Z,26.71
2023-03-17T13:47:24.343Z,28.26
2023-03-17T13:50:33.656Z,29.16
2023-03-17T13:53:41.443Z,30.15
2023-03-17T13:56:45.296Z,30.51
2023-03-17T13:59:51.199Z,30.83
2023-03-17T14:03:03.877Z,30.64
2023-03-17T14:06:08.861Z,30.12
2023-03-17T14:09:24.053Z,28.93
2023-03-17T14:12:51.345Z,27.69
2023-03-17T14:16:12.628Z,27.43
2023-03-17T14:19:28.130Z,25.61
2023-03-17T14:22:30.942Z,25.82
2023-03-17T14:25:38.314Z,24.55
2023-03-17T14:28:41.016Z,24.89
2023-03-17T14:32:07.704Z,26.46
2023-03-17T14:35:14.029Z,28.06
2023-03-17T14:38:32.464Z,28.59
2023-03-17T14:41:36.270Z,26.84
2023-03-17T14:44:41.411Z,25.64
2023-03-17T14:47:44.005Z,23.86
2023-03-17T14:50:55.459Z,23.57
2023-03-17T14:54:01.021Z,23.40
2023-03-17T14:57:08.867Z,24.03
2023-03-17T15:00:46.612Z,23.69
2023-03-17T15:04:08.583Z,23.02
2023-03-17T15:07:48.036Z,22.74
2023-03-17T15:10:50.746Z,22.89
2023-03-17T15:14:03.245Z,22.21
2023-03-17T15:17:16.107Z,19.90
2023-03-17T15:20:20.147Z,17.35
2023-03-17T15:23:25.139Z,17.13
2023-03-17T15:26:34.054Z,16.89
2023-03-17T15:29:36.717Z,16.82
2023-03-17T15:32:39.995Z,16.34
2023-03-17T15:35:42.633Z,15.95
2023-03-17T15:38:45.283Z,15.34
2023-03-17T15:41:47.908Z,14.83
2023-03-17T15:44:51.536Z,14.66
2023-03-17T15:47:55.389Z,13.98
2023-03-17T15:51:00.251Z,13.84
2023-03-17T15:54:03.115Z,13.42
2023-03-17T15:57:06.503Z,13.25
2023-03-17T16:00:16.802Z,13.08
2023-03-17T16:03:24.321Z,12.78
2023-03-17T16:06:27.919Z,12.66
2023-03-17T16:09:30.525Z,12.28
2023-03-17T16:12:33.185Z,12.04
2023-03-17T16:15:39.369Z,11.85
2023-03-17T16:18:42.287Z,11.88
2023-03-17T16:21:44.997Z,11.80
2023-03-17T16:24:47.578Z,11.84
2023-03-17T16:27:50.629Z,11.62
2023-03-17T16:30:55.051Z,11.48
2023-03-17T16:33:58.113Z,11.55
2023-03-17T16:37:01.100Z,11.48
2023-03-17T16:40:05.099Z,11.38
2023-03-17T16:43:25.019Z,11.30
2023-03-17T16:46:34.611Z,11.08
2023-03-17T16:49:37.870Z,10.97
2023-03-17T16:52:40.941Z,10.91
2023-03-17T16:55:44.804Z,10.86
2023-03-17T16:58:49.081Z,10.76
2023-03-17T17:01:55.039Z,10.64
2023-03-17T17:04:59.354Z,10.58
2023-03-17T17:08:02.336Z,10.45
2023-03-17T17:11:05.712Z,10.39
2023-03-17T17:14:10.076Z,10.32
2023-03-17T17:17:13.540Z,10.33
2023-03-17T17:20:21.646Z,10.34
2023-03-17T17:23:27.528Z,10.21
2023-03-17T17:26:30.710Z,10.22
2023-03-17T17:29:34.033Z,10.22
2023-03-17T17:32:37.431Z,10.47
2023-03-17T17:35:41.361Z,10.39
2023-03-17T17:38:45.535Z,10.25
2023-03-17T17:41:49.277Z,10.06
2023-03-17T17:44:53.353Z,9.89
2023-03-17T17:47:56.820Z,10.04
2023-03-17T17:51:00.192Z,10.13
2023-03-17T17:54:03.675Z,9.90
2023-03-17T17:57:07.416Z,9.88
2023-03-17T18:00:16.956Z,9.93
2023-03-17T18:03:24.966Z,9.83
2023-03-17T18:06:28.195Z,9.73
2023-03-17T18:09:32.168Z,9.62
2023-03-17T18:12:35.997Z,9.53
2023-03-17T18:15:39.615Z,9.59
2023-03-17T18:18:57.584Z,9.50
2023-03-17T18:22:01.236Z,9.37
2023-03-17T18:25:06.453Z,9.47
2023-03-17T18:28:12.215Z,9.34
2023-03-17T18:31:32.026Z,9.24
2023-03-17T18:34:43.953Z,9.11
2023-03-17T18:37:48.668Z,8.97
2023-03-17T18:40:52.714Z,8.90
2023-03-17T18:43:56.387Z,8.83
2023-03-17T18:47:00.288Z,8.90
2023-03-17T18:50:08.216Z,8.86
2023-03-17T18:53:13.590Z,8.85
2023-03-17T18:56:17.252Z,8.83
2023-03-17T18:59:20.986Z,8.86
2023-03-17T19:02:24.715Z,8.75
2023-03-17T19:05:29.119Z,8.75
2023-03-17T19:08:34.994Z,8.75
2023-03-17T19:11:45.236Z,8.73
2023-03-17T19:14:50.916Z,8.59
2023-03-17T19:17:54.539Z,8.47
2023-03-17T19:20:58.923Z,8.41
2023-03-17T19:24:03.880Z,8.39
2023-03-17T19:27:09.000Z,8.43
2023-03-17T19:30:15.944Z,8.28
2023-03-17T19:33:20.205Z,8.30
2023-03-17T19:36:24.368Z,8.24
2023-03-17T19:39:28.103Z,8.23
2023-03-17T19:42:32.102Z,8.24
2023-03-17T19:45:56.605Z,8.24
2023-03-17T19:49:01.437Z,8.18
2023-03-17T19:52:08.124Z,8.10
2023-03-17T19:55:12.225Z,8.03
2023-03-17T19:58:15.897Z,7.96
2023-03-17T20:01:21.864Z,7.87
2023-03-17T20:04:26.830Z,7.81
2023-03-17T20:07:30.189Z,7.76
2023-03-17T20:10:34.817Z,7.76
2023-03-17T20:13:39.493Z,7.68
2023-03-17T20:16:44.534Z,7.61
2023-03-17T20:19:48.104Z,7.52
2023-03-17T20:22:57.820Z,7.52
2023-03-17T20:26:02.210Z,7.54
2023-03-17T20:29:07.004Z,7.49
2023-03-17T20:32:15.245Z,7.40
2023-03-17T20:35:19.456Z,7.40
2023-03-17T20:38:23.427Z,7.29
2023-03-17T20:41:28.187Z,7.44
2023-03-17T20:44:32.031Z,7.40
2023-03-17T20:47:35.500Z,7.36
2023-03-17T20:50:43.689Z,7.32
2023-03-17T20:53:49.584Z,7.31
2023-03-17T20:56:56.543Z,7.30
2023-03-17T20:59:59.986Z,7.20
2023-03-17T21:03:07.018Z,7.28
2023-03-17T21:06:11.607Z,7.22
2023-03-17T21:09:15.364Z,7.18
2023-03-17T21:12:20.428Z,7.18
2023-03-17T21:15:24.036Z,7.04
2023-03-17T21:18:28.227Z,7.01
2023-03-17T21:21:32.725Z,6.92
2023-03-17T21:24:38.772Z,6.90
2023-03-17T21:27:43.197Z,6.97
2023-03-17T21:30:47.509Z,7.05
2023-03-17T21:33:51.389Z,6.93
2023-03-17T21:36:55.599Z,6.90
2023-03-17T21:39:58.886Z,6.92
2023-03-17T21:43:01.607Z,6.84
2023-03-17T21:46:05.576Z,6.89
2023-03-17T21:49:08.741Z,6.89
2023-03-17T21:52:12.797Z,6.78
2023-03-17T21:55:15.888Z,6.75
2023-03-17T21:58:19.485Z,6.49
2023-03-17T22:01:22.653Z,6.27
2023-03-17T22:04:26.097Z,6.42
2023-03-17T22:07:29.286Z,6.51
2023-03-17T22:10:32.263Z,6.65
2023-03-17T22:13:35.924Z,6.64
2023-03-17T22:16:38.539Z,6.58
2023-03-17T22:19:44.045Z,6.50
2023-03-17T22:22:46.633Z,6.48
2023-03-17T22:25:49.305Z,6.45
2023-03-17T22:28:52.566Z,6.52
2023-03-17T22:31:55.310Z,6.47
2023-03-17T22:34:58.046Z,6.23
2023-03-17T22:38:00.792Z,6.11
2023-03-17T22:41:09.440Z,6.08
2023-03-17T22:44:13.309Z,6.15
2023-03-17T22:47:15.778Z,6.02
2023-03-17T22:50:18.805Z,6.00
2023-03-17T22:53:21.911Z,6.05
2023-03-17T22:56:25.129Z,5.94
2023-03-17T22:59:27.680Z,5.90
2023-03-17T23:02:30.774Z,5.85
2023-03-17T23:05:33.318Z,5.67
2023-03-17T23:08:38.523Z,5.74
2023-03-17T23:11:42.393Z,5.65
2023-03-17T23:14:44.930Z,5.62
2023-03-17T23:17:47.680Z,5.69
2023-03-17T23:20:50.862Z,5.87
2023-03-17T23:23:53.585Z,5.87
2023-03-17T23:26:56.291Z,5.87
2023-03-17T23:29:59.302Z,5.71
2023-03-17T23:33:02.997Z,5.56
2023-03-17T23:36:06.339Z,5.53
2023-03-17T23:39:09.274Z,5.53
2023-03-17T23:42:12.131Z,5.45
2023-03-17T23:45:16.737Z,5.35
2023-03-17T23:48:20.804Z,5.38
2023-03-17T23:51:24.047Z,5.26
2023-03-17T23:54:27.974Z,5.26
2023-03-17T23:57:30.672Z,5.16
